^^
Your Local Weather - Clay, NY Station Historical Data
Daily Summary for June 26, 2017 Units:  English    Metric   Both
« Previous Day
Next Day »
Daily Weekly Monthly Yearly Custom
  High: Low: Average:
Temperature: 70.6 °F 50.7 °F 59.8 °F
Dew Point: 59.4 °F 48.5 °F 53.6 °F
Humidity: 94% 57% 81%
Wind Speed: 4.0mph 0.0mph 0.9mph
Wind Gust: 9.0mph - -
Wind- - WSW
Pressure: 29.96 in 29.89 in -
Precipitation: 0.17 in    
Historical Graphs
 
 
Tabular Data for June 26, 2017
Time Temperature Dew Point Pressure Wind Wind Speed Wind Gust Humidity Rainfall Rate (Hourly) solar
00:04 57.4 °F 51.9 °F 29.93 in WSW 1.0 mph 1.0 mph 82% 0.00 in 0 W/m2
00:10 57.3 °F 51.9 °F 29.93 in WSW 1.0 mph 4.0 mph 82% 0.00 in 0 W/m2
00:16 57.4 °F 51.9 °F 29.93 in WSW 1.0 mph 4.0 mph 82% 0.00 in 0 W/m2
00:22 57.3 °F 51.9 °F 29.93 in WSW 1.0 mph 3.0 mph 82% 0.00 in 0 W/m2
00:28 57.2 °F 51.8 °F 29.93 in WSW 1.0 mph 3.0 mph 82% 0.00 in 0 W/m2
00:34 57.1 °F 51.7 °F 29.93 in WSW 1.0 mph 1.0 mph 82% 0.00 in 0 W/m2
00:40 56.9 °F 51.5 °F 29.93 in WSW 1.0 mph 1.0 mph 82% 0.00 in 0 W/m2
00:46 56.8 °F 51.4 °F 29.93 in Calm   1.0 mph 82% 0.00 in 0 W/m2
00:54 56.5 °F 51.1 °F 29.94 in Calm   2.0 mph 82% 0.00 in 0 W/m2
01:00 56.4 °F 51.3 °F 29.94 in Calm     83% 0.00 in 0 W/m2
01:06 56.3 °F 51.2 °F 29.93 in Calm     83% 0.00 in 0 W/m2
01:12 56.1 °F 51.0 °F 29.93 in Calm   1.0 mph 83% 0.00 in 0 W/m2
01:18 56.0 °F 50.9 °F 29.93 in Calm   2.0 mph 83% 0.00 in 0 W/m2
01:24 55.8 °F 51.0 °F 29.93 in Calm     84% 0.00 in 0 W/m2
01:30 55.7 °F 50.9 °F 29.93 in Calm     84% 0.00 in 0 W/m2
01:36 55.5 °F 50.7 °F 29.93 in Calm     84% 0.00 in 0 W/m2
01:42 55.0 °F 50.9 °F 29.93 in Calm     86% 0.00 in 0 W/m2
01:48 54.5 °F 50.7 °F 29.94 in Calm     87% 0.00 in 0 W/m2
01:54 54.2 °F 50.7 °F 29.94 in Calm     88% 0.00 in 0 W/m2
02:00 53.9 °F 50.7 °F 29.94 in Calm     89% 0.00 in 0 W/m2
02:06 53.6 °F 50.4 °F 29.93 in Calm     89% 0.00 in 0 W/m2
02:12 53.3 °F 50.1 °F 29.93 in Calm     89% 0.00 in 0 W/m2
02:18 53.2 °F 50.3 °F 29.93 in Calm     90% 0.00 in 0 W/m2
02:24 53.1 °F 50.2 °F 29.93 in Calm     90% 0.00 in 0 W/m2
02:30 52.9 °F 50.0 °F 29.93 in Calm     90% 0.00 in 0 W/m2
02:36 52.8 °F 49.9 °F 29.93 in Calm     90% 0.00 in 0 W/m2
02:42 52.8 °F 49.9 °F 29.92 in Calm     90% 0.00 in 0 W/m2
02:48 52.8 °F 50.2 °F 29.92 in Calm     91% 0.00 in 0 W/m2
02:54 52.6 °F 50.0 °F 29.92 in Calm     91% 0.00 in 0 W/m2
03:00 52.5 °F 49.9 °F 29.92 in Calm     91% 0.00 in 0 W/m2
03:06 52.3 °F 49.8 °F 29.92 in Calm     91% 0.00 in 0 W/m2
03:12 52.2 °F 49.7 °F 29.92 in Calm     91% 0.00 in 0 W/m2
03:18 52.1 °F 49.6 °F 29.92 in Calm     91% 0.00 in 0 W/m2
03:24 52.0 °F 49.5 °F 29.92 in Calm     91% 0.00 in 0 W/m2
03:30 51.9 °F 49.4 °F 29.92 in Calm     91% 0.00 in 0 W/m2
03:36 51.8 °F 49.3 °F 29.92 in Calm     91% 0.00 in 0 W/m2
03:42 51.7 °F 49.2 °F 29.92 in Calm     91% 0.00 in 0 W/m2
03:48 51.6 °F 49.4 °F 29.92 in Calm     92% 0.00 in 0 W/m2
03:54 51.6 °F 49.4 °F 29.92 in Calm     92% 0.00 in 0 W/m2
04:00 51.5 °F 49.3 °F 29.92 in Calm     92% 0.00 in 0 W/m2
04:06 51.3 °F 49.1 °F 29.92 in Calm     92% 0.00 in 0 W/m2
04:12 51.3 °F 49.1 °F 29.92 in Calm     92% 0.00 in 0 W/m2
04:18 51.3 °F 49.1 °F 29.92 in Calm     92% 0.00 in 0 W/m2
04:24 51.2 °F 49.0 °F 29.92 in Calm     92% 0.00 in 0 W/m2
04:30 51.1 °F 48.9 °F 29.92 in Calm     92% 0.00 in 0 W/m2
04:36 51.1 °F 48.9 °F 29.92 in Calm     92% 0.00 in 0 W/m2
04:42 51.0 °F 48.8 °F 29.92 in Calm     92% 0.00 in 0 W/m2
04:48 50.9 °F 48.7 °F 29.92 in Calm     92% 0.00 in 0 W/m2
04:54 50.8 °F 48.6 °F 29.92 in Calm     92% 0.00 in 0 W/m2
05:00 50.7 °F 48.5 °F 29.92 in Calm     92% 0.00 in 0 W/m2
05:06 50.7 °F 48.5 °F 29.93 in Calm     92% 0.00 in 0 W/m2
05:12 50.8 °F 48.6 °F 29.93 in Calm     92% 0.00 in 0 W/m2
05:18 50.9 °F 48.7 °F 29.93 in Calm     92% 0.00 in 0 W/m2
05:24 51.1 °F 48.9 °F 29.93 in Calm     92% 0.00 in 0 W/m2
05:30 51.5 °F 49.5 °F 29.93 in Calm     93% 0.00 in 0 W/m2
05:36 51.7 °F 49.7 °F 29.93 in Calm     93% 0.00 in 5 W/m2
05:42 51.8 °F 49.8 °F 29.93 in Calm     93% 0.00 in 7 W/m2
05:48 51.7 °F 49.7 °F 29.93 in Calm     93% 0.00 in 11 W/m2
05:54 51.7 °F 49.7 °F 29.93 in Calm     93% 0.00 in 14 W/m2
06:00 52.0 °F 50.0 °F 29.94 in Calm     93% 0.00 in 30 W/m2
06:06 52.4 °F 50.4 °F 29.94 in Calm     93% 0.00 in 28 W/m2
06:12 52.8 °F 50.8 °F 29.94 in Calm     93% 0.00 in 28 W/m2
06:16 52.9 °F 50.9 °F 29.94 in Calm     93% 0.00 in 26 W/m2
06:22 53.3 °F 51.3 °F 29.94 in Calm     93% 0.00 in 33 W/m2
06:28 53.4 °F 51.4 °F 29.94 in Calm     93% 0.00 in 30 W/m2
06:34 53.7 °F 51.7 °F 29.94 in Calm     93% 0.00 in 47 W/m2
06:40 53.8 °F 51.8 °F 29.94 in Calm     93% 0.00 in 44 W/m2
06:46 54.1 °F 52.4 °F 29.95 in Calm     94% 0.00 in 67 W/m2
06:52 54.5 °F 52.5 °F 29.95 in Calm     93% 0.00 in 77 W/m2
06:58 54.9 °F 53.2 °F 29.95 in Calm     94% 0.00 in 44 W/m2
07:04 55.1 °F 53.4 °F 29.95 in Calm     94% 0.00 in 37 W/m2
07:10 55.3 °F 53.6 °F 29.95 in Calm     94% 0.00 in 63 W/m2
07:16 55.8 °F 54.1 °F 29.95 in Calm     94% 0.00 in 274 W/m2
07:22 56.4 °F 54.7 °F 29.95 in Calm   3.0 mph 94% 0.00 in 269 W/m2
07:28 56.6 °F 54.9 °F 29.95 in WSW 1.0 mph 3.0 mph 94% 0.00 in 49 W/m2
07:34 57.1 °F 55.1 °F 29.95 in WSW 1.0 mph 1.0 mph 93% 0.00 in 295 W/m2
07:40 58.1 °F 56.1 °F 29.95 in Calm     93% 0.00 in 316 W/m2
07:48 59.5 °F 56.6 °F 29.95 in SW 1.0 mph 3.0 mph 90% 0.00 in 346 W/m2
07:54 60.6 °F 56.1 °F 29.95 in SW 1.0 mph 2.0 mph 85% 0.00 in 367 W/m2
08:00 61.5 °F 56.0 °F 29.95 in West 2.0 mph 4.0 mph 82% 0.00 in 438 W/m2
08:06 62.4 °F 55.8 °F 29.95 in WSW 2.0 mph 6.0 mph 79% 0.00 in 410 W/m2
08:12 62.7 °F 55.0 °F 29.95 in SSW 2.0 mph 4.0 mph 76% 0.00 in 171 W/m2
08:18 62.3 °F 54.6 °F 29.95 in WSW 2.0 mph 4.0 mph 76% 0.00 in 100 W/m2
08:24 62.0 °F 54.3 °F 29.95 in WSW 2.0 mph 4.0 mph 76% 0.00 in 139 W/m2
08:30 62.4 °F 54.7 °F 29.95 in SW 2.0 mph 6.0 mph 76% 0.00 in 403 W/m2
08:36 63.1 °F 55.0 °F 29.95 in WSW 2.0 mph 6.0 mph 75% 0.00 in 483 W/m2
08:42 63.6 °F 55.2 °F 29.95 in WSW 1.0 mph 5.0 mph 74% 0.00 in 494 W/m2
08:48 64.1 °F 55.6 °F 29.95 in WSW 2.0 mph 5.0 mph 74% 0.00 in 510 W/m2
08:54 64.2 °F 55.0 °F 29.95 in West 2.0 mph 7.0 mph 72% 0.00 in 531 W/m2
09:00 64.7 °F 55.8 °F 29.95 in SW 2.0 mph 2.0 mph 73% 0.00 in 559 W/m2
09:06 64.8 °F 55.2 °F 29.95 in WSW 2.0 mph 3.0 mph 71% 0.00 in 568 W/m2
09:12 65.4 °F 55.7 °F 29.95 in WSW 1.0 mph 2.0 mph 71% 0.00 in 657 W/m2
09:18 65.6 °F 55.2 °F 29.95 in WSW 1.0 mph 2.0 mph 69% 0.00 in 232 W/m2
09:24 65.4 °F 55.0 °F 29.95 in SW 2.0 mph 2.0 mph 69% 0.00 in 258 W/m2
09:30 65.6 °F 55.5 °F 29.95 in WSW 3.0 mph 3.0 mph 70% 0.00 in 169 W/m2
09:36 65.0 °F 54.2 °F 29.96 in SW 2.0 mph 9.0 mph 68% 0.00 in 199 W/m2
09:42 64.5 °F 54.5 °F 29.95 in WSW 3.0 mph 5.0 mph 70% 0.00 in 362 W/m2
09:48 64.7 °F 54.7 °F 29.95 in WSW 3.0 mph 5.0 mph 70% 0.00 in 148 W/m2
09:54 64.8 °F 54.4 °F 29.95 in WSW 3.0 mph 6.0 mph 69% 0.00 in 179 W/m2
10:00 65.5 °F 55.1 °F 29.95 in WSW 2.0 mph 2.0 mph 69% 0.00 in 842 W/m2
10:06 66.6 °F 55.7 °F 29.95 in WNW 2.0 mph 2.0 mph 68% 0.00 in 916 W/m2
10:12 66.9 °F 55.6 °F 29.95 in SSW 2.0 mph 2.0 mph 67% 0.00 in 831 W/m2
10:18 67.0 °F 54.8 °F 29.95 in NW 3.0 mph 4.0 mph 65% 0.00 in 844 W/m2
10:24 66.7 °F 53.7 °F 29.95 in SSW 2.0 mph 5.0 mph 63% 0.00 in 237 W/m2
10:30 67.1 °F 54.5 °F 29.95 in WSW 2.0 mph 7.0 mph 64% 0.00 in 916 W/m2
10:34 67.2 °F 55.5 °F 29.95 in SSW 3.0 mph 7.0 mph 66% 0.00 in 939 W/m2
10:40 67.6 °F 55.0 °F 29.95 in WNW 2.0 mph 2.0 mph 64% 0.00 in 930 W/m2
10:46 67.4 °F 53.5 °F 29.95 in SW 2.0 mph 7.0 mph 61% 0.00 in 947 W/m2
10:52 67.3 °F 53.4 °F 29.95 in SW 3.0 mph 5.0 mph 61% 0.00 in 225 W/m2
10:58 67.3 °F 55.1 °F 29.94 in WSW 3.0 mph 5.0 mph 65% 0.00 in 977 W/m2
11:04 67.4 °F 54.8 °F 29.94 in SW 4.0 mph 4.0 mph 64% 0.00 in 972 W/m2
11:10 68.6 °F 54.6 °F 29.94 in South 3.0 mph 3.0 mph 61% 0.00 in 1067 W/m2
11:16 68.1 °F 52.8 °F 29.94 in WSW 3.0 mph 3.0 mph 58% 0.00 in 332 W/m2
11:22 67.4 °F 52.6 °F 29.94 in West 3.0 mph 6.0 mph 59% 0.00 in 230 W/m2
11:28 67.0 °F 53.5 °F 29.94 in West 2.0 mph 6.0 mph 62% 0.00 in 239 W/m2
11:34 66.8 °F 53.8 °F 29.94 in SW 2.0 mph 5.0 mph 63% 0.00 in 216 W/m2
11:40 66.7 °F 52.8 °F 29.94 in WSW 2.0 mph 6.0 mph 61% 0.00 in 287 W/m2
11:46 66.9 °F 56.8 °F 29.94 in WSW 2.0 mph 6.0 mph 70% 0.00 in 1102 W/m2
11:52 68.2 °F 53.8 °F 29.94 in WSW 2.0 mph 6.0 mph 60% 0.00 in 1081 W/m2
11:58 68.2 °F 53.3 °F 29.93 in South 3.0 mph 6.0 mph 59% 0.00 in 1081 W/m2
12:04 67.6 °F 54.6 °F 29.93 in SW 3.0 mph 4.0 mph 63% 0.00 in 234 W/m2
12:10 68.9 °F 56.2 °F 29.93 in SW 3.0 mph 3.0 mph 64% 0.00 in 1076 W/m2
12:16 70.6 °F 57.4 °F 29.93 in NW 1.0 mph 3.0 mph 63% 0.00 in 1158 W/m2
12:22 69.5 °F 53.6 °F 29.93 in West 1.0 mph 3.0 mph 57% 0.00 in 288 W/m2
12:28 68.9 °F 55.3 °F 29.93 in SW 2.0 mph 3.0 mph 62% 0.00 in 225 W/m2
12:34 67.5 °F 52.2 °F 29.93 in NNW 3.0 mph 7.0 mph 58% 0.00 in 76 W/m2
12:40 63.9 °F 52.3 °F 29.93 in NNW 4.0 mph 4.0 mph 66% 0.00 in 172 W/m2
12:46 61.6 °F 52.5 °F 29.93 in NNW 3.0 mph 4.0 mph 72% 0.00 in 155 W/m2
12:52 60.4 °F 52.8 °F 29.93 in NW 2.0 mph 4.0 mph 76% 0.00 in 279 W/m2
12:58 59.8 °F 53.3 °F 29.93 in NNW 2.0 mph 4.0 mph 79% 0.00 in 209 W/m2
13:04 59.6 °F 53.8 °F 29.93 in NNW 2.0 mph 3.0 mph 81% 0.00 in 213 W/m2
13:10 59.9 °F 54.4 °F 29.93 in NNW 1.0 mph 3.0 mph 82% 0.00 in 427 W/m2
13:16 60.5 °F 55.3 °F 29.93 in NNE 2.0 mph 4.0 mph 83% 0.00 in 229 W/m2
13:22 60.7 °F 54.8 °F 29.93 in NW 3.0 mph 3.0 mph 81% 0.00 in 81 W/m2
13:28 60.6 °F 55.1 °F 29.94 in NW 2.0 mph 4.0 mph 82% 0.20 in 42 W/m2
13:34 60.1 °F 54.9 °F 29.93 in North 2.0 mph 3.0 mph 83% 0.18 in 28 W/m2
13:40 59.6 °F 55.1 °F 29.95 in SW 1.0 mph 4.0 mph 85% 0.13 in 65 W/m2
13:46 59.3 °F 55.1 °F 29.95 in West 1.0 mph 4.0 mph 86% 0.40 in 146 W/m2
13:52 59.3 °F 55.4 °F 29.95 in West 1.0 mph 1.0 mph 87% 0.20 in 239 W/m2
13:58 59.7 °F 55.8 °F 29.94 in Calm   1.0 mph 87% 0.07 in 278 W/m2
14:04 60.5 °F 56.9 °F 29.94 in Calm   1.0 mph 88% 0.04 in 480 W/m2
14:10 61.7 °F 57.8 °F 29.94 in South 2.0 mph 2.0 mph 87% 0.00 in 462 W/m2
14:16 62.6 °F 58.7 °F 29.94 in SSW 2.0 mph 2.0 mph 87% 0.00 in 494 W/m2
14:22 63.7 °F 59.4 °F 29.94 in South 2.0 mph 3.0 mph 86% 0.00 in 747 W/m2
14:28 64.3 °F 58.0 °F 29.93 in SW 2.0 mph 3.0 mph 80% 0.00 in 629 W/m2
14:34 64.9 °F 58.6 °F 29.93 in SSE 2.0 mph 3.0 mph 80% 0.00 in 504 W/m2
14:40 65.3 °F 57.9 °F 29.93 in SSE 1.0 mph 2.0 mph 77% 0.00 in 594 W/m2
14:46 65.7 °F 57.2 °F 29.93 in SSW 2.0 mph 3.0 mph 74% 0.00 in 756 W/m2
14:52 65.8 °F 58.4 °F 29.93 in SSW 2.0 mph 2.0 mph 77% 0.00 in 510 W/m2
14:58 66.8 °F 58.6 °F 29.92 in SW 1.0 mph 2.0 mph 75% 0.00 in 868 W/m2
15:04 67.6 °F 57.9 °F 29.92 in West 1.0 mph 3.0 mph 71% 0.00 in 860 W/m2
15:10 66.8 °F 54.2 °F 29.92 in SSW 2.0 mph 3.0 mph 64% 0.00 in 875 W/m2
15:16 67.1 °F 56.2 °F 29.92 in WSW 2.0 mph 3.0 mph 68% 0.00 in 838 W/m2
15:24 67.7 °F 55.9 °F 29.92 in SSW 2.0 mph 4.0 mph 66% 0.00 in 842 W/m2
15:30 68.9 °F 58.3 °F 29.92 in WNW 2.0 mph 2.0 mph 69% 0.00 in 863 W/m2
15:36 68.1 °F 55.5 °F 29.92 in WSW 1.0 mph 4.0 mph 64% 0.00 in 209 W/m2
15:42 67.4 °F 54.8 °F 29.92 in WSW 1.0 mph 1.0 mph 64% 0.00 in 186 W/m2
15:48 67.2 °F 54.6 °F 29.92 in Calm   1.0 mph 64% 0.00 in 165 W/m2
15:54 67.1 °F 54.9 °F 29.92 in Calm   2.0 mph 65% 0.00 in 137 W/m2
16:00 66.7 °F 57.0 °F 29.92 in WSW 1.0 mph 1.0 mph 71% 0.00 in 102 W/m2
16:06 66.2 °F 56.5 °F 29.92 in Calm   1.0 mph 71% 0.00 in 60 W/m2
16:12 66.2 °F 58.0 °F 29.92 in Calm     75% 0.00 in 56 W/m2
16:18 66.0 °F 58.2 °F 29.92 in Calm     76% 0.00 in 56 W/m2
16:24 65.4 °F 57.6 °F 29.92 in Calm     76% 0.00 in 63 W/m2
16:30 65.1 °F 58.1 °F 29.93 in Calm     78% 0.26 in 137 W/m2
16:36 64.7 °F 58.0 °F 29.92 in Calm     79% 0.15 in 211 W/m2
16:42 64.6 °F 57.9 °F 29.92 in Calm     79% 0.07 in 290 W/m2
16:48 64.7 °F 58.0 °F 29.92 in Calm     79% 0.04 in 244 W/m2
16:54 65.2 °F 58.9 °F 29.91 in Calm   2.0 mph 80% 0.00 in 260 W/m2
17:00 65.2 °F 58.2 °F 29.91 in North 1.0 mph 2.0 mph 78% 0.00 in 160 W/m2
17:06 65.0 °F 56.9 °F 29.91 in North 1.0 mph 2.0 mph 75% 0.00 in 202 W/m2
17:12 65.2 °F 57.4 °F 29.91 in North 1.0 mph 1.0 mph 76% 0.00 in 172 W/m2
17:18 65.5 °F 58.1 °F 29.90 in North 1.0 mph 1.0 mph 77% 0.00 in 162 W/m2
17:24 65.6 °F 58.2 °F 29.91 in West 1.0 mph 3.0 mph 77% 0.00 in 113 W/m2
17:30 65.5 °F 58.5 °F 29.90 in SSE 1.0 mph 1.0 mph 78% 0.00 in 137 W/m2
17:36 65.3 °F 58.6 °F 29.90 in SSE 1.0 mph 1.0 mph 79% 0.00 in 155 W/m2
17:42 65.1 °F 58.4 °F 29.90 in SE 1.0 mph 2.0 mph 79% 0.00 in 160 W/m2
17:48 65.1 °F 58.1 °F 29.90 in SE 2.0 mph 3.0 mph 78% 0.00 in 163 W/m2
17:54 65.2 °F 55.9 °F 29.90 in SSE 1.0 mph 3.0 mph 72% 0.00 in 162 W/m2
18:00 65.5 °F 55.8 °F 29.90 in SSE 1.0 mph 2.0 mph 71% 0.00 in 127 W/m2
18:06 65.3 °F 57.2 °F 29.89 in SSE 1.0 mph 2.0 mph 75% 0.00 in 95 W/m2
18:12 65.2 °F 57.1 °F 29.90 in Calm     75% 0.00 in 114 W/m2
18:18 65.1 °F 57.3 °F 29.90 in Calm     76% 0.00 in 86 W/m2
18:24 65.0 °F 57.6 °F 29.90 in Calm   2.0 mph 77% 0.00 in 81 W/m2
18:30 64.7 °F 57.3 °F 29.90 in Calm     77% 0.00 in 44 W/m2
18:36 64.3 °F 57.3 °F 29.89 in Calm   2.0 mph 78% 0.00 in 51 W/m2
18:42 63.9 °F 57.3 °F 29.89 in Calm     79% 0.00 in 56 W/m2
18:48 63.6 °F 58.0 °F 29.89 in Calm     82% 0.00 in 56 W/m2
18:54 63.3 °F 58.4 °F 29.89 in Calm     84% 0.00 in 53 W/m2
19:06 63.1 °F 57.5 °F 29.89 in SSE 1.0 mph 2.0 mph 82% 0.00 in 25 W/m2
19:12 63.2 °F 57.3 °F 29.89 in SE 1.0 mph 3.0 mph 81% 0.00 in 33 W/m2
19:18 63.2 °F 57.3 °F 29.89 in SSW 1.0 mph 3.0 mph 81% 0.00 in 28 W/m2
19:24 63.4 °F 57.1 °F 29.90 in SSW 1.0 mph 2.0 mph 80% 0.00 in 63 W/m2
19:30 63.6 °F 56.6 °F 29.90 in South 2.0 mph 5.0 mph 78% 0.00 in 46 W/m2
19:36 64.0 °F 55.5 °F 29.90 in SW 3.0 mph 5.0 mph 74% 0.00 in 44 W/m2
19:42 64.1 °F 54.5 °F 29.91 in SW 2.0 mph 3.0 mph 71% 0.00 in 39 W/m2
19:48 64.2 °F 52.2 °F 29.91 in WSW 3.0 mph 4.0 mph 65% 0.00 in 26 W/m2
19:54 64.3 °F 51.9 °F 29.91 in SW 4.0 mph 6.0 mph 64% 0.00 in 11 W/m2
20:00 64.2 °F 52.2 °F 29.91 in WSW 2.0 mph 2.0 mph 65% 0.00 in 7 W/m2
20:06 63.9 °F 52.7 °F 29.92 in WSW 1.0 mph 3.0 mph 67% 0.00 in 9 W/m2
20:12 63.5 °F 52.7 °F 29.93 in SW 1.0 mph 1.0 mph 68% 0.00 in 18 W/m2
20:18 63.1 °F 53.5 °F 29.93 in WSW 1.0 mph 2.0 mph 71% 0.00 in 21 W/m2
20:24 62.3 °F 53.9 °F 29.93 in SW 2.0 mph 4.0 mph 74% 0.00 in 16 W/m2
20:30 61.1 °F 53.8 °F 29.93 in WSW 4.0 mph 4.0 mph 77% 0.00 in 9 W/m2
20:36 60.4 °F 54.2 °F 29.92 in WSW 3.0 mph 5.0 mph 80% 0.00 in 12 W/m2
20:42 59.8 °F 54.0 °F 29.91 in South 2.0 mph 4.0 mph 81% 0.00 in 5 W/m2
20:48 59.5 °F 54.3 °F 29.91 in South 1.0 mph 4.0 mph 83% 0.00 in 0 W/m2
20:54 59.0 °F 54.2 °F 29.91 in South 1.0 mph 3.0 mph 84% 0.00 in 0 W/m2
21:00 58.5 °F 54.0 °F 29.91 in South 1.0 mph 1.0 mph 85% 0.00 in 0 W/m2
21:06 58.1 °F 53.9 °F 29.91 in South 1.0 mph 1.0 mph 86% 0.00 in 0 W/m2
21:12 57.8 °F 54.0 °F 29.91 in Calm   1.0 mph 87% 0.00 in 0 W/m2
21:18 57.6 °F 53.8 °F 29.92 in Calm   1.0 mph 87% 0.00 in 0 W/m2
21:24 57.4 °F 53.6 °F 29.92 in Calm     87% 0.00 in 0 W/m2
21:30 57.1 °F 53.6 °F 29.92 in Calm     88% 0.00 in 0 W/m2
21:36 56.7 °F 53.2 °F 29.92 in Calm     88% 0.00 in 0 W/m2
21:42 56.3 °F 52.8 °F 29.92 in Calm     88% 0.00 in 0 W/m2
21:48 56.0 °F 52.8 °F 29.92 in Calm     89% 0.00 in 0 W/m2
21:54 55.8 °F 52.6 °F 29.92 in Calm     89% 0.00 in 0 W/m2
22:00 55.7 °F 52.8 °F 29.93 in Calm     90% 0.00 in 0 W/m2
22:06 55.5 °F 52.6 °F 29.93 in Calm     90% 0.00 in 0 W/m2
22:12 55.2 °F 52.3 °F 29.94 in Calm     90% 0.00 in 0 W/m2
22:18 55.1 °F 52.5 °F 29.94 in Calm     91% 0.00 in 0 W/m2
22:24 55.0 °F 52.4 °F 29.94 in Calm     91% 0.00 in 0 W/m2
22:30 55.0 °F 52.4 °F 29.94 in Calm     91% 0.00 in 0 W/m2
22:36 54.8 °F 52.2 °F 29.93 in Calm     91% 0.00 in 0 W/m2
22:42 54.6 °F 52.0 °F 29.93 in Calm     91% 0.00 in 0 W/m2
22:48 54.4 °F 51.8 °F 29.93 in Calm     91% 0.00 in 0 W/m2
22:54 54.2 °F 51.6 °F 29.93 in Calm     91% 0.00 in 0 W/m2
23:00 54.1 °F 51.8 °F 29.93 in Calm     92% 0.00 in 0 W/m2
23:06 53.9 °F 51.3 °F 29.92 in Calm     91% 0.00 in 0 W/m2
23:12 53.8 °F 51.5 °F 29.93 in Calm     92% 0.00 in 0 W/m2
23:18 53.6 °F 51.3 °F 29.92 in Calm     92% 0.00 in 0 W/m2
23:24 53.4 °F 51.1 °F 29.93 in Calm     92% 0.00 in 0 W/m2
23:30 53.3 °F 51.0 °F 29.92 in Calm   1.0 mph 92% 0.00 in 0 W/m2
23:36 53.3 °F 51.0 °F 29.92 in Calm   1.0 mph 92% 0.00 in 0 W/m2
23:42 53.3 °F 51.0 °F 29.92 in Calm     92% 0.00 in 0 W/m2
23:48 53.1 °F 50.8 °F 29.92 in Calm     92% 0.00 in 0 W/m2
23:54 53.0 °F 50.7 °F 29.92 in Calm     92% 0.00 in 0 W/m2
Country Meadow, Clay, NY, USA
Compliments of Weather Underground - 2 mb